ENVAENKB

Guest
Details From ENVA - Vaernes
To ENKB - KVERNBERGET
Flight Number -
Tags generated
Created
Modified
Stats Distance 86 nm / 159 km
Max Altitude 4,600 ft / 1,402 m
Waypoints 3
Social Downloads 1
Likes 0
Share VATSIM

Download

Looking for another format? Having issues loading an existing format? Contact us
Advertisement - Login to hide

Notes

Basic altitude profile: - Ascent Rate: 2500ft/min - Ascent Speed: 250kts - Cruise Altitude: 35000ft - Cruise Speed: 420kts - Descent Rate: 1500ft/min - Descent Speed: 250kts Options: - Use NATs: yes - Use PACOTS: yes - Use low airways: yes - Use high airways: yes

Route

ENVA TURSI ENKB

ID Type Via Altitude Latitude Longitude Leg Dist Tot Dist Heading (true) Name
O ENVA APT - 0 ft / 0 m 63.45760˚ 10.91798˚ - 0 nm - Vaernes
TURSI FIX - 4,600 ft / 1,402 m 63.22750˚ 8.58139˚ 64 nm 64 nm 259° / 257° -
O ENKB APT - 0 ft / 0 m 63.11187˚ 7.82453˚ 21 nm 86 nm 252° / 251° KVERNBERGET

Altitude Profile

Advertisement - Login to hide

ENVA

Details ICAO ENVA (TRD)
Name Vaernes
Region Norway
Timezone Europe/Oslo (UTC+1.0)
Stats Elevation 56 ft / 17 m (AMSL)
Location 63.457605° 10.917980°
Runways 1
Magnetic Variation 3.497° E

METAR

ENVA 182020Z 05004KT 9999 SCT024 BKN047 02/00 Q1019 NOSIG RMK WIND 670FT 23012KT

Decode

TAF

TAF ENVA 181700Z 1818/1918 23015KT 9999 -RA FEW012 BKN040 BECMG 1819/1821 13008KT

Decode

Departure Runways

ID Width Length Bearing (true) Bearing (mag) Surface Threshold Offset Overrun Length
09 148 ft / 45 m 9,356 ft / 2,852 m 90.21° 86.71° Asphalt 984 ft / 300 m 0 ft / 0 m
27 148 ft / 45 m 9,356 ft / 2,852 m 270.26° 266.76° Asphalt 689 ft / 210 m 0 ft / 0 m

ENKB

Details ICAO ENKB (KSU)
Name KVERNBERGET
Region Norway
Timezone Europe/Oslo (UTC+1.0)
Stats Elevation 204 ft / 62 m (AMSL)
Location 63.111872° 7.824532°
Runways 1
Magnetic Variation 1.986° E

METAR

ENKB 182020Z VRB02KT 9999 BKN028 04/01 Q1018 RMK WIND 745FT 18009KT

Decode

TAF

Not found

Destination Runways

ID Width Length Bearing (true) Bearing (mag) Surface Threshold Offset Overrun Length
07 148 ft / 45 m 6,192 ft / 1,887 m 71.39° 69.40° Asphalt 197 ft / 60 m 0 ft / 0 m
25 148 ft / 45 m 6,192 ft / 1,887 m 251.42° 249.43° Asphalt 263 ft / 80 m 0 ft / 0 m

Approach Navaids

Runway Type Ident Frequency Range Bearing (true) Bearing (mag) Slope Elevation
07 Localiser KB 110.10 MHz 18 nm / 33 km 71.60° 69.62° - 204 ft / 62 m (AMSL)
07 Glidescope KB 110.10 MHz 10 nm / 19 km 71.41° 69.42° 3.00° 204 ft / 62 m (AMSL)

Popular Alternatives